createdAt,value
2018-08-22T00:01:41.687Z,2.00
2018-08-22T00:04:11.345Z,7.30
2018-08-22T00:06:40.882Z,2.30
2018-08-22T00:09:10.489Z,4.87
2018-08-22T00:11:40.057Z,1.60
2018-08-22T00:14:09.769Z,5.10
2018-08-22T00:16:39.689Z,3.73
2018-08-22T00:19:09.307Z,2.40
2018-08-22T00:21:38.868Z,3.10
2018-08-22T00:24:08.647Z,3.53
2018-08-22T00:26:38.150Z,1.97
2018-08-22T00:29:07.743Z,3.70
2018-08-22T00:31:37.496Z,2.13
2018-08-22T00:34:07.291Z,3.50
2018-08-22T00:36:36.850Z,1.87
2018-08-22T00:39:08.336Z,2.80
2018-08-22T00:41:37.997Z,3.80
2018-08-22T00:44:07.761Z,6.27
2018-08-22T00:46:37.427Z,1.73
2018-08-22T00:49:13.698Z,6.10
2018-08-22T00:51:43.346Z,4.23
2018-08-22T00:54:12.913Z,2.83
2018-08-22T00:56:42.522Z,4.60
2018-08-22T00:59:12.364Z,3.00
2018-08-22T01:01:41.966Z,3.43
2018-08-22T01:04:11.516Z,3.00
2018-08-22T01:06:41.139Z,2.90
2018-08-22T01:09:12.323Z,3.53
2018-08-22T01:11:42.234Z,2.83
2018-08-22T01:14:13.051Z,1.97
2018-08-22T01:16:42.651Z,2.80
2018-08-22T01:19:12.288Z,1.63
2018-08-22T01:21:41.877Z,3.67
2018-08-22T01:24:11.416Z,4.87
2018-08-22T01:26:41.029Z,2.00
2018-08-22T01:29:10.573Z,2.47
2018-08-22T01:31:40.151Z,2.90
2018-08-22T01:34:09.717Z,2.97
2018-08-22T01:36:39.319Z,2.93
2018-08-22T01:39:09.362Z,3.30
2018-08-22T01:41:39.086Z,5.13
2018-08-22T01:44:08.703Z,2.77
2018-08-22T01:46:38.297Z,2.53
2018-08-22T01:49:08.015Z,4.50
2018-08-22T01:51:37.612Z,2.80
2018-08-22T01:54:07.154Z,1.97
2018-08-22T01:56:37.033Z,3.07
2018-08-22T01:59:06.642Z,3.60
2018-08-22T02:01:37.424Z,3.20
2018-08-22T02:04:07.247Z,5.93
2018-08-22T02:06:36.912Z,2.90
2018-08-22T02:09:10.831Z,3.03
2018-08-22T02:11:40.401Z,3.07
2018-08-22T02:14:10.880Z,2.47
2018-08-22T02:16:40.469Z,4.07
2018-08-22T02:19:10.766Z,3.90
2018-08-22T02:21:40.353Z,5.13
2018-08-22T02:24:09.969Z,1.97
2018-08-22T02:26:39.569Z,2.93
2018-08-22T02:29:09.272Z,2.87
2018-08-22T02:31:38.892Z,2.47
2018-08-22T02:34:08.429Z,1.70
2018-08-22T02:36:37.972Z,2.00
2018-08-22T02:39:09.292Z,3.30
2018-08-22T02:41:38.961Z,1.73
2018-08-22T02:44:08.532Z,2.73
2018-08-22T02:46:38.081Z,2.37
2018-08-22T02:49:11.734Z,5.60
2018-08-22T02:51:41.260Z,4.77
2018-08-22T02:54:11.165Z,3.20
2018-08-22T02:56:40.725Z,2.87
2018-08-22T02:59:10.334Z,1.57
2018-08-22T03:01:39.863Z,3.83
2018-08-22T03:04:09.422Z,1.63
2018-08-22T03:06:38.973Z,2.30
2018-08-22T03:09:09.394Z,3.33
2018-08-22T03:11:38.958Z,2.07
2018-08-22T03:14:08.544Z,2.20
2018-08-22T03:16:38.088Z,1.80
2018-08-22T03:19:07.619Z,2.80
2018-08-22T03:21:37.168Z,2.27
2018-08-22T03:24:06.916Z,4.23
2018-08-22T03:26:36.510Z,2.93
2018-08-22T03:29:06.145Z,2.13
2018-08-22T03:31:35.925Z,4.47
2018-08-22T03:34:05.495Z,1.83
2018-08-22T03:36:35.056Z,7.00
2018-08-22T03:39:05.987Z,2.17
2018-08-22T03:41:35.590Z,2.50
2018-08-22T03:44:05.173Z,1.70
2018-08-22T03:46:34.837Z,2.40
2018-08-22T03:49:04.604Z,2.10
2018-08-22T03:51:34.186Z,2.83
2018-08-22T03:54:03.706Z,4.07
2018-08-22T03:56:33.247Z,3.33
2018-08-22T03:59:02.804Z,2.60
2018-08-22T04:01:32.367Z,3.80
2018-08-22T04:04:01.974Z,2.47
2018-08-22T04:06:31.570Z,4.00
2018-08-22T04:09:01.176Z,6.97
2018-08-22T04:11:30.868Z,2.67
2018-08-22T04:14:00.511Z,3.27
2018-08-22T04:16:30.110Z,5.57
2018-08-22T04:18:59.656Z,3.00
2018-08-22T04:21:29.290Z,4.90
2018-08-22T04:23:58.936Z,2.73
2018-08-22T04:26:28.562Z,4.73
2018-08-22T04:28:58.134Z,7.53
2018-08-22T04:31:27.743Z,3.77
2018-08-22T04:33:57.268Z,3.40
2018-08-22T04:36:27.011Z,4.00
2018-08-22T04:38:56.630Z,4.53
2018-08-22T04:41:26.221Z,3.97
2018-08-22T04:43:55.759Z,3.47
2018-08-22T04:46:25.330Z,4.77
2018-08-22T04:48:54.879Z,5.37
2018-08-22T04:51:24.460Z,3.87
2018-08-22T04:53:53.999Z,6.63
2018-08-22T04:56:23.645Z,2.90
2018-08-22T04:58:53.230Z,5.13
2018-08-22T05:01:22.779Z,6.43
2018-08-22T05:03:52.338Z,4.67
2018-08-22T05:06:21.894Z,4.80
2018-08-22T05:08:51.473Z,6.07
2018-08-22T05:11:20.959Z,7.83
2018-08-22T05:13:50.522Z,4.87
2018-08-22T05:16:20.065Z,4.20
2018-08-22T05:18:49.634Z,4.97
2018-08-22T05:21:19.278Z,5.70
2018-08-22T05:23:48.818Z,4.07
2018-08-22T05:26:18.388Z,2.97
2018-08-22T05:28:48.262Z,4.33
2018-08-22T05:31:17.774Z,4.67
2018-08-22T05:33:47.289Z,3.70
2018-08-22T05:36:16.856Z,3.13
2018-08-22T05:38:46.525Z,4.67
2018-08-22T05:41:16.090Z,4.97
2018-08-22T05:43:45.810Z,5.80
2018-08-22T05:46:15.355Z,6.13
2018-08-22T05:48:44.949Z,6.87
2018-08-22T05:51:14.521Z,5.47
2018-08-22T05:53:44.024Z,7.23
2018-08-22T05:56:13.598Z,5.03
2018-08-22T05:58:43.140Z,5.63
2018-08-22T06:01:12.790Z,5.10
2018-08-22T06:03:42.328Z,4.60
2018-08-22T06:06:11.962Z,4.40
2018-08-22T06:08:41.710Z,3.53
2018-08-22T06:11:11.482Z,5.83
2018-08-22T06:13:41.052Z,6.80
2018-08-22T06:16:10.905Z,4.50
2018-08-22T06:18:40.416Z,7.40
2018-08-22T06:21:10.063Z,3.63
2018-08-22T06:23:39.739Z,5.33
2018-08-22T06:26:09.439Z,3.73
2018-08-22T06:28:39.167Z,4.40
2018-08-22T06:31:08.822Z,6.13
2018-08-22T06:33:38.425Z,4.03
2018-08-22T06:36:08.049Z,4.27
2018-08-22T06:38:37.715Z,4.23
2018-08-22T06:41:07.270Z,12.07
2018-08-22T06:43:36.959Z,5.47
2018-08-22T06:46:06.921Z,5.23
2018-08-22T06:48:36.577Z,6.67
2018-08-22T06:51:06.467Z,7.47
2018-08-22T06:53:36.070Z,18.23
2018-08-22T06:56:05.650Z,10.03
2018-08-22T06:58:35.182Z,5.80
2018-08-22T07:01:04.829Z,5.07
2018-08-22T07:03:34.594Z,7.20
2018-08-22T07:06:04.378Z,3.63
2018-08-22T07:08:33.954Z,5.20
2018-08-22T07:11:03.491Z,7.90
2018-08-22T07:13:33.010Z,5.40
2018-08-22T07:16:02.673Z,9.67
2018-08-22T07:18:32.481Z,6.50
2018-08-22T07:21:02.146Z,8.90
2018-08-22T07:23:31.995Z,9.50
2018-08-22T07:26:01.613Z,8.30
2018-08-22T07:28:34.814Z,5.87
2018-08-22T07:31:08.813Z,6.17
2018-08-22T07:33:38.498Z,9.93
2018-08-22T07:36:08.168Z,8.87
2018-08-22T07:38:40.556Z,5.97
2018-08-22T07:41:10.084Z,4.20
2018-08-22T07:43:39.706Z,10.53
2018-08-22T07:46:09.744Z,6.20
2018-08-22T07:48:39.401Z,5.07
2018-08-22T07:51:09.037Z,4.57
2018-08-22T07:53:38.602Z,5.10
2018-08-22T07:56:08.286Z,5.37
2018-08-22T07:58:38.098Z,8.37
2018-08-22T08:01:08.306Z,7.90
2018-08-22T08:03:37.917Z,5.23
2018-08-22T08:06:07.841Z,4.17
2018-08-22T08:08:37.781Z,3.80
2018-08-22T08:11:07.591Z,8.63
2018-08-22T08:13:37.467Z,4.53
2018-08-22T08:16:07.192Z,5.93
2018-08-22T08:18:37.427Z,6.97
2018-08-22T08:21:07.276Z,6.07
2018-08-22T08:23:37.215Z,7.73
2018-08-22T08:26:07.800Z,6.53
2018-08-22T08:28:38.421Z,6.67
2018-08-22T08:31:08.982Z,4.60
2018-08-22T08:33:39.027Z,7.93
2018-08-22T08:36:08.966Z,6.90
2018-08-22T08:38:38.771Z,5.10
2018-08-22T08:41:09.386Z,4.67
2018-08-22T08:43:39.308Z,8.50
2018-08-22T08:46:09.219Z,5.00
2018-08-22T08:48:38.992Z,6.10
2018-08-22T08:51:08.966Z,7.43
2018-08-22T08:53:39.193Z,5.53
2018-08-22T08:56:09.189Z,9.67
2018-08-22T08:58:38.967Z,3.50
2018-08-22T09:01:08.853Z,6.53
2018-08-22T09:03:39.075Z,3.57
2018-08-22T09:06:08.701Z,9.47
2018-08-22T09:08:38.293Z,6.87
2018-08-22T09:11:07.932Z,4.90
2018-08-22T09:13:43.930Z,6.47
2018-08-22T09:16:13.796Z,5.93
2018-08-22T09:18:43.494Z,3.33
2018-08-22T09:21:13.098Z,6.33
2018-08-22T09:23:42.969Z,4.03
2018-08-22T09:26:12.711Z,3.93
2018-08-22T09:28:48.120Z,5.87
2018-08-22T09:31:19.598Z,4.37
2018-08-22T09:33:49.964Z,7.47
2018-08-22T09:36:19.612Z,7.23
2018-08-22T09:38:51.132Z,5.83
2018-08-22T09:41:29.863Z,5.20
2018-08-22T09:43:59.979Z,6.20
2018-08-22T09:46:31.262Z,8.30
2018-08-22T09:49:02.206Z,12.73
2018-08-22T09:51:32.830Z,5.57
2018-08-22T09:54:02.606Z,6.03
2018-08-22T09:56:32.848Z,5.90
2018-08-22T09:59:02.697Z,10.43
2018-08-22T10:01:37.723Z,6.17
2018-08-22T10:04:07.559Z,11.80
2018-08-22T10:06:47.396Z,6.57
2018-08-22T10:09:19.368Z,7.80
2018-08-22T10:11:49.470Z,7.23
2018-08-22T10:14:19.250Z,8.10
2018-08-22T10:16:49.752Z,6.10
2018-08-22T10:19:24.469Z,6.50
2018-08-22T10:21:55.535Z,5.37
2018-08-22T10:24:25.713Z,5.10
2018-08-22T10:26:55.600Z,4.50
2018-08-22T10:29:25.916Z,6.77
2018-08-22T10:31:55.630Z,6.60
2018-08-22T10:34:26.402Z,6.10
2018-08-22T10:36:58.092Z,11.93
2018-08-22T10:39:27.922Z,4.97
2018-08-22T10:41:58.251Z,6.50
2018-08-22T10:44:32.105Z,5.17
2018-08-22T10:47:02.910Z,9.23
2018-08-22T10:49:35.186Z,10.40
2018-08-22T10:52:08.108Z,6.87
2018-08-22T10:54:37.681Z,9.60
2018-08-22T10:57:07.640Z,7.67
2018-08-22T10:59:37.947Z,6.80
2018-08-22T11:02:07.559Z,6.20
2018-08-22T11:04:37.479Z,6.70
2018-08-22T11:07:07.058Z,7.33
2018-08-22T11:09:36.679Z,6.93
2018-08-22T11:12:06.269Z,7.93
2018-08-22T11:17:36.282Z,6.53
2018-08-22T11:20:05.913Z,7.03
2018-08-22T11:22:52.434Z,7.63
2018-08-22T11:25:38.921Z,5.00
2018-08-22T11:28:25.428Z,5.47
2018-08-22T11:31:11.825Z,5.17
2018-08-22T11:33:58.276Z,5.17
2018-08-22T11:36:26.233Z,5.93
2018-08-22T11:38:56.105Z,9.40
2018-08-22T11:41:25.670Z,5.73
2018-08-22T11:43:55.196Z,6.50
2018-08-22T11:46:24.930Z,7.30
2018-08-22T11:48:54.614Z,12.67
2018-08-22T11:51:24.165Z,6.00
2018-08-22T11:53:53.888Z,6.90
2018-08-22T11:56:23.471Z,5.77
2018-08-22T11:58:53.055Z,11.07
2018-08-22T12:01:22.595Z,6.77
2018-08-22T12:03:52.561Z,9.47
2018-08-22T12:06:22.056Z,7.80
2018-08-22T12:08:51.788Z,9.50
2018-08-22T12:11:21.320Z,8.87
2018-08-22T12:13:51.320Z,8.13
2018-08-22T12:16:20.886Z,7.33
2018-08-22T12:18:50.451Z,8.00
2018-08-22T12:21:20.010Z,9.27
2018-08-22T12:23:49.756Z,8.23
2018-08-22T12:26:19.467Z,9.10
2018-08-22T12:28:49.152Z,6.53
2018-08-22T12:31:18.817Z,6.87
2018-08-22T12:33:48.349Z,11.23
2018-08-22T12:36:18.064Z,5.77
2018-08-22T12:38:47.555Z,5.47
2018-08-22T12:41:17.214Z,7.40
2018-08-22T12:43:46.729Z,9.50
2018-08-22T12:46:16.422Z,5.07
2018-08-22T12:51:27.913Z,5.70
2018-08-22T12:53:57.735Z,6.20
2018-08-22T12:56:27.383Z,5.80
2018-08-22T12:58:57.961Z,6.70
2018-08-22T13:01:27.649Z,6.30
2018-08-22T13:03:57.632Z,5.50
2018-08-22T13:06:27.465Z,5.33
2018-08-22T13:08:57.239Z,5.50
2018-08-22T13:11:27.402Z,7.00
2018-08-22T13:13:57.410Z,5.13
2018-08-22T13:16:27.196Z,5.53
2018-08-22T13:18:57.384Z,6.80
2018-08-22T13:21:27.121Z,4.80
2018-08-22T13:23:56.869Z,5.07
2018-08-22T13:26:26.571Z,4.93
2018-08-22T13:28:56.212Z,5.87
2018-08-22T13:31:26.001Z,6.40
2018-08-22T13:33:55.702Z,4.83
2018-08-22T13:36:25.388Z,6.53
2018-08-22T13:38:55.082Z,6.70
2018-08-22T13:41:24.881Z,5.63
2018-08-22T13:43:54.542Z,5.50
2018-08-22T13:46:24.302Z,5.20
2018-08-22T13:48:54.012Z,5.17
2018-08-22T13:51:23.598Z,4.70
2018-08-22T13:53:53.247Z,6.53
2018-08-22T13:56:22.958Z,5.23
2018-08-22T13:58:52.700Z,6.60
2018-08-22T14:01:22.409Z,4.30
2018-08-22T14:03:52.414Z,6.00
2018-08-22T14:06:22.251Z,5.23
2018-08-22T14:08:52.534Z,5.43
2018-08-22T14:11:22.231Z,4.83
2018-08-22T14:13:52.077Z,5.83
2018-08-22T14:16:21.791Z,4.97
2018-08-22T14:18:51.587Z,6.87
2018-08-22T14:21:21.320Z,5.73
2018-08-22T14:23:51.012Z,6.23
2018-08-22T14:26:20.951Z,4.47
2018-08-22T14:28:50.782Z,6.17
2018-08-22T14:31:20.573Z,5.80
2018-08-22T14:33:50.271Z,3.83
2018-08-22T14:36:19.986Z,10.60
2018-08-22T14:38:49.518Z,5.23
2018-08-22T14:41:19.040Z,8.40
2018-08-22T14:43:48.821Z,6.73
2018-08-22T14:46:18.731Z,7.43
2018-08-22T14:48:48.257Z,6.73
2018-08-22T14:51:17.794Z,8.53
2018-08-22T14:53:47.449Z,6.97
2018-08-22T14:56:17.177Z,6.50
2018-08-22T14:58:46.992Z,4.87
2018-08-22T15:01:16.570Z,7.90
2018-08-22T15:03:46.160Z,5.70
2018-08-22T15:06:15.622Z,4.17
2018-08-22T15:08:46.272Z,6.70
2018-08-22T15:11:16.027Z,5.40
2018-08-22T15:13:46.766Z,4.63
2018-08-22T15:16:16.441Z,4.17
2018-08-22T15:18:46.236Z,3.57
2018-08-22T15:21:16.093Z,6.77
2018-08-22T15:23:46.323Z,5.20
2018-08-22T15:26:15.987Z,4.83
2018-08-22T15:28:45.787Z,5.07
2018-08-22T15:31:15.363Z,6.23
2018-08-22T15:33:45.668Z,6.83
2018-08-22T15:36:15.490Z,6.97
2018-08-22T15:38:45.280Z,6.50
2018-08-22T15:41:18.132Z,10.10
2018-08-22T15:43:47.841Z,7.03
2018-08-22T15:46:17.740Z,5.53
2018-08-22T15:48:47.242Z,5.73
2018-08-22T15:51:17.218Z,6.30
2018-08-22T15:55:05.382Z,8.17
2018-08-22T15:57:56.091Z,9.33
2018-08-22T16:00:37.920Z,6.63
2018-08-22T16:03:08.837Z,6.63
2018-08-22T16:05:39.855Z,7.77
2018-08-22T16:08:09.938Z,9.37
2018-08-22T16:10:40.742Z,7.43
2018-08-22T16:13:20.457Z,7.17
2018-08-22T16:15:51.262Z,6.80
2018-08-22T16:18:21.276Z,7.67
2018-08-22T16:20:58.669Z,8.07
2018-08-22T16:23:31.267Z,8.83
2018-08-22T16:26:02.785Z,7.50
2018-08-22T16:28:51.264Z,7.17
2018-08-22T16:31:31.217Z,7.43
2018-08-22T16:34:00.780Z,10.23
2018-08-22T16:36:31.250Z,10.33
2018-08-22T16:39:01.579Z,8.33
2018-08-22T16:41:31.369Z,7.07
2018-08-22T16:44:06.268Z,10.70
2018-08-22T16:46:41.601Z,7.90
2018-08-22T16:49:12.984Z,9.80
2018-08-22T16:51:45.704Z,10.77
2018-08-22T16:54:15.881Z,10.43
2018-08-22T16:56:47.372Z,10.10
2018-08-22T16:59:23.416Z,12.73
2018-08-22T17:01:53.274Z,10.77
2018-08-22T17:04:23.702Z,12.07
2018-08-22T17:06:56.193Z,9.53
2018-08-22T17:09:30.271Z,9.33
2018-08-22T17:12:06.927Z,6.87
2018-08-22T17:14:50.328Z,16.53
2018-08-22T17:17:24.899Z,8.10
2018-08-22T17:19:58.049Z,8.97
2018-08-22T17:22:31.869Z,9.80
2018-08-22T17:25:01.935Z,8.93
2018-08-22T17:27:32.022Z,7.77
2018-08-22T17:30:02.265Z,7.93
2018-08-22T17:32:32.128Z,9.87
2018-08-22T17:35:09.869Z,20.03
2018-08-22T17:37:56.650Z,16.40
2018-08-22T17:40:26.319Z,6.73
2018-08-22T17:42:58.136Z,8.03
2018-08-22T17:45:37.088Z,12.13
2018-08-22T17:48:11.400Z,8.43
2018-08-22T17:50:41.678Z,7.90
2018-08-22T17:53:12.658Z,7.93
2018-08-22T17:55:43.690Z,10.13
2018-08-22T17:58:15.031Z,10.77
2018-08-22T18:00:45.156Z,10.43
2018-08-22T18:03:19.603Z,12.67
2018-08-22T18:05:50.111Z,10.97
2018-08-22T18:08:25.843Z,13.67
2018-08-22T18:11:03.413Z,8.17
2018-08-22T18:13:34.109Z,8.67
2018-08-22T18:16:03.684Z,7.83
2018-08-22T18:18:33.511Z,10.20
2018-08-22T18:21:03.212Z,10.60
2018-08-22T18:23:35.112Z,8.83
2018-08-22T18:26:05.571Z,7.60
2018-08-22T18:28:36.268Z,9.43
2018-08-22T18:31:06.466Z,9.73
2018-08-22T18:33:56.510Z,10.07
2018-08-22T18:36:34.915Z,10.03
2018-08-22T18:39:12.826Z,8.97
2018-08-22T18:41:42.361Z,9.23
2018-08-22T18:44:12.297Z,9.23
2018-08-22T18:46:41.838Z,11.40
2018-08-22T18:49:11.430Z,9.17
2018-08-22T18:51:41.415Z,11.50
2018-08-22T18:54:11.306Z,14.47
2018-08-22T18:56:41.673Z,11.53
2018-08-22T18:59:26.249Z,7.53
2018-08-22T19:01:56.222Z,8.43
2018-08-22T19:04:26.503Z,7.83
2018-08-22T19:06:56.252Z,9.90
2018-08-22T19:09:25.862Z,7.90
2018-08-22T19:11:56.045Z,8.03
2018-08-22T19:14:42.793Z,13.80
2018-08-22T19:17:14.121Z,11.63
2018-08-22T19:19:46.147Z,8.87
2018-08-22T19:22:24.091Z,8.27
2018-08-22T19:25:06.085Z,10.83
2018-08-22T19:27:44.832Z,9.40
2018-08-22T19:30:16.594Z,11.87
2018-08-22T19:32:49.067Z,9.73
2018-08-22T19:35:22.137Z,11.23
2018-08-22T19:37:56.316Z,9.87
2018-08-22T19:40:29.611Z,9.30
2018-08-22T19:43:02.586Z,9.13
2018-08-22T19:45:32.841Z,11.53
2018-08-22T19:48:06.519Z,11.63
2018-08-22T19:50:36.399Z,14.20
2018-08-22T19:53:06.652Z,11.23
2018-08-22T19:55:37.989Z,14.80
2018-08-22T19:58:09.237Z,8.93
2018-08-22T20:00:38.921Z,10.43
2018-08-22T20:03:12.419Z,9.10
2018-08-22T20:06:02.280Z,15.10
2018-08-22T20:08:38.816Z,11.10
2018-08-22T20:11:14.707Z,11.23
2018-08-22T20:14:03.892Z,9.37
2018-08-22T20:16:38.695Z,10.00
2018-08-22T20:19:08.764Z,12.23
2018-08-22T20:21:45.559Z,10.33
2018-08-22T20:24:15.297Z,14.33
2018-08-22T20:26:51.874Z,10.90
2018-08-22T20:29:28.333Z,10.93
2018-08-22T20:32:00.091Z,10.53
2018-08-22T20:34:31.796Z,11.70
2018-08-22T20:37:06.786Z,10.80
2018-08-22T20:39:36.851Z,10.80
2018-08-22T20:42:12.908Z,12.27
2018-08-22T20:44:43.495Z,13.33
2018-08-22T20:47:14.834Z,12.43
2018-08-22T20:49:57.185Z,16.80
2018-08-22T20:52:30.256Z,13.30
2018-08-22T20:55:05.505Z,12.20
2018-08-22T20:57:39.112Z,12.83
2018-08-22T21:00:12.940Z,13.53
2018-08-22T21:02:46.989Z,11.53
2018-08-22T21:05:27.641Z,12.47
2018-08-22T21:08:01.144Z,11.10
2018-08-22T21:10:34.994Z,15.20
2018-08-22T21:13:16.647Z,12.30
2018-08-22T21:15:50.183Z,12.90
2018-08-22T21:18:32.009Z,15.47
2018-08-22T21:21:10.457Z,13.40
2018-08-22T21:23:44.175Z,12.50
2018-08-22T21:26:32.576Z,14.80
2018-08-22T21:29:05.484Z,13.10
2018-08-22T21:31:37.787Z,15.77
2018-08-22T21:34:16.545Z,13.50
2018-08-22T21:36:49.705Z,15.53
2018-08-22T21:39:26.583Z,13.87
2018-08-22T21:42:06.932Z,15.90
2018-08-22T21:44:40.576Z,14.03
2018-08-22T21:47:10.180Z,14.67
2018-08-22T21:49:43.089Z,15.00
2018-08-22T21:52:16.867Z,16.73
2018-08-22T21:54:50.352Z,14.03
2018-08-22T21:57:20.020Z,14.13
2018-08-22T21:59:57.725Z,19.13
2018-08-22T22:02:27.421Z,16.93
2018-08-22T22:04:57.001Z,15.27
2018-08-22T22:07:26.845Z,15.47
2018-08-22T22:10:00.615Z,18.50
2018-08-22T22:12:35.499Z,16.23
2018-08-22T22:15:06.247Z,18.27
2018-08-22T22:17:35.778Z,14.67
2018-08-22T22:20:05.779Z,14.37
2018-08-22T22:22:35.376Z,15.13
2018-08-22T22:25:05.598Z,16.57
2018-08-22T22:27:35.439Z,14.43
2018-08-22T22:30:10.930Z,21.80
2018-08-22T22:32:40.491Z,19.90
2018-08-22T22:35:10.152Z,18.63
2018-08-22T22:37:40.965Z,16.37
2018-08-22T22:40:10.542Z,16.27
2018-08-22T22:42:41.001Z,14.03
2018-08-22T22:45:10.595Z,16.70
2018-08-22T22:47:40.678Z,17.37
2018-08-22T22:50:10.251Z,18.20
2018-08-22T22:52:42.155Z,16.03
2018-08-22T22:55:12.798Z,17.27
2018-08-22T22:57:44.088Z,18.87
2018-08-22T23:00:15.407Z,18.97
2018-08-22T23:02:45.837Z,19.43
2018-08-22T23:05:15.438Z,17.20
2018-08-22T23:07:45.013Z,19.50
2018-08-22T23:10:15.567Z,17.67
2018-08-22T23:12:46.281Z,15.10
2018-08-22T23:15:20.890Z,16.37
2018-08-22T23:17:53.091Z,16.27
2018-08-22T23:20:34.767Z,15.87
2018-08-22T23:23:06.363Z,16.53
2018-08-22T23:25:36.212Z,17.73
2018-08-22T23:28:05.742Z,17.17
2018-08-22T23:30:36.924Z,17.93
2018-08-22T23:33:07.385Z,16.83
2018-08-22T23:35:37.480Z,18.37
2018-08-22T23:38:14.848Z,19.20
2018-08-22T23:40:45.303Z,17.00
2018-08-22T23:43:14.902Z,15.27
2018-08-22T23:45:58.000Z,15.87
2018-08-22T23:48:32.777Z,15.60
2018-08-22T23:51:03.935Z,17.83
2018-08-22T23:53:47.806Z,17.47
2018-08-22T23:56:21.747Z,15.97
2018-08-22T23:58:51.839Z,17.63
